createdAt,value
2023-04-20T00:00:17.864Z,96.40
2023-04-20T00:02:45.447Z,96.50
2023-04-20T00:05:12.765Z,96.30
2023-04-20T00:07:41.733Z,96.40
2023-04-20T00:10:09.715Z,96.50
2023-04-20T00:12:36.882Z,96.50
2023-04-20T00:15:04.072Z,96.40
2023-04-20T00:17:31.145Z,96.50
2023-04-20T00:19:57.996Z,96.50
2023-04-20T00:22:26.324Z,96.50
2023-04-20T00:24:53.181Z,96.60
2023-04-20T00:27:20.009Z,96.60
2023-04-20T00:29:46.824Z,96.70
2023-04-20T00:32:13.657Z,96.70
2023-04-20T00:34:40.472Z,96.70
2023-04-20T00:37:07.321Z,96.80
2023-04-20T00:39:34.236Z,96.90
2023-04-20T00:42:06.612Z,96.90
2023-04-20T00:44:33.825Z,96.80
2023-04-20T00:47:01.501Z,96.90
2023-04-20T00:49:30.171Z,96.90
2023-04-20T00:51:58.735Z,97.00
2023-04-20T00:54:28.380Z,96.90
2023-04-20T00:56:57.990Z,96.90
2023-04-20T00:59:24.944Z,96.80
2023-04-20T01:01:51.998Z,96.80
2023-04-20T01:04:19.378Z,96.80
2023-04-20T01:06:46.464Z,96.70
2023-04-20T01:09:13.307Z,96.90
2023-04-20T01:11:40.266Z,96.80
2023-04-20T01:14:07.484Z,96.70
2023-04-20T01:16:37.377Z,97.10
2023-04-20T01:19:04.421Z,96.80
2023-04-20T01:21:32.132Z,96.70
2023-04-20T01:23:59.129Z,96.60
2023-04-20T01:26:27.405Z,96.60
2023-04-20T01:28:54.378Z,96.40
2023-04-20T01:31:21.265Z,96.50
2023-04-20T01:33:48.807Z,96.50
2023-04-20T01:36:15.733Z,96.40
2023-04-20T01:38:42.630Z,96.50
2023-04-20T01:41:10.226Z,96.50
2023-04-20T01:43:38.230Z,96.50
2023-04-20T01:46:05.801Z,96.50
2023-04-20T01:48:33.162Z,96.60
2023-04-20T01:50:59.986Z,96.70
2023-04-20T01:53:27.111Z,96.80
2023-04-20T01:55:54.003Z,96.80
2023-04-20T01:58:20.820Z,96.90
2023-04-20T02:00:47.898Z,96.90
2023-04-20T02:03:14.865Z,96.90
2023-04-20T02:05:41.862Z,96.90
2023-04-20T02:08:08.779Z,97.00
2023-04-20T02:10:35.900Z,97.00
2023-04-20T02:13:02.728Z,97.10
2023-04-20T02:15:29.649Z,97.10
2023-04-20T02:17:57.453Z,97.10
2023-04-20T02:20:24.628Z,97.00
2023-04-20T02:22:51.564Z,97.20
2023-04-20T02:25:18.566Z,97.00
2023-04-20T02:27:45.460Z,97.10
2023-04-20T02:30:12.996Z,97.00
2023-04-20T02:32:40.002Z,97.10
2023-04-20T02:35:07.028Z,97.00
2023-04-20T02:37:33.779Z,97.50
2023-04-20T02:40:00.754Z,97.10
2023-04-20T02:42:27.568Z,97.10
2023-04-20T02:44:54.504Z,97.20
2023-04-20T02:47:21.434Z,97.40
2023-04-20T02:49:48.384Z,97.70
2023-04-20T02:52:15.627Z,97.70
2023-04-20T02:54:42.405Z,98.00
2023-04-20T02:57:10.996Z,98.20
2023-04-20T02:59:38.332Z,98.20
2023-04-20T03:02:05.521Z,98.20
2023-04-20T03:04:32.456Z,98.10
2023-04-20T03:07:00.452Z,98.10
2023-04-20T03:09:28.081Z,98.20
2023-04-20T03:11:54.914Z,98.40
2023-04-20T03:14:21.817Z,98.70
2023-04-20T03:16:48.861Z,98.80
2023-04-20T03:19:16.320Z,98.70
2023-04-20T03:21:44.304Z,98.80
2023-04-20T03:24:11.461Z,98.80
2023-04-20T03:26:38.303Z,98.80
2023-04-20T03:29:05.125Z,98.90
2023-04-20T03:31:32.022Z,98.90
2023-04-20T03:33:58.873Z,99.10
2023-04-20T03:36:25.773Z,99.20
2023-04-20T03:38:52.610Z,99.10
2023-04-20T03:41:19.448Z,99.20
2023-04-20T03:43:46.386Z,99.10
2023-04-20T03:46:13.308Z,99.30
2023-04-20T03:48:40.608Z,99.40
2023-04-20T03:51:07.472Z,99.60
2023-04-20T03:53:36.634Z,99.90
2023-04-20T03:56:05.378Z,99.80
2023-04-20T03:58:32.478Z,99.90
2023-04-20T04:01:04.185Z,99.90
2023-04-20T04:03:31.186Z,99.90
2023-04-20T04:05:58.419Z,99.90
2023-04-20T04:08:25.241Z,99.90
2023-04-20T04:10:52.149Z,99.90
2023-04-20T04:13:18.982Z,99.90
2023-04-20T04:15:46.173Z,99.90
2023-04-20T04:18:13.015Z,99.90
2023-04-20T04:20:39.812Z,99.90
2023-04-20T04:23:07.027Z,99.90
2023-04-20T04:25:34.125Z,99.90
2023-04-20T04:28:01.000Z,99.90
2023-04-20T04:30:27.829Z,99.90
2023-04-20T04:32:55.543Z,99.90
2023-04-20T04:35:22.537Z,99.90
2023-04-20T04:37:49.393Z,99.90
2023-04-20T04:40:16.401Z,99.90
2023-04-20T04:42:45.424Z,99.90
2023-04-20T04:45:13.630Z,99.90
2023-04-20T04:47:43.934Z,99.90
2023-04-20T04:50:11.463Z,99.90
2023-04-20T04:52:38.339Z,99.90
2023-04-20T04:55:09.189Z,99.90
2023-04-20T04:57:38.565Z,99.90
2023-04-20T05:00:11.613Z,99.90
2023-04-20T05:02:38.863Z,99.90
2023-04-20T05:05:09.411Z,99.90
2023-04-20T05:07:38.266Z,99.90
2023-04-20T05:10:06.402Z,99.90
2023-04-20T05:12:33.438Z,99.90
2023-04-20T05:15:00.531Z,99.90
2023-04-20T05:17:27.563Z,99.90
2023-04-20T05:19:54.542Z,99.90
2023-04-20T05:22:21.409Z,99.90
2023-04-20T05:24:48.321Z,99.90
2023-04-20T05:27:15.409Z,99.90
2023-04-20T05:29:42.438Z,99.90
2023-04-20T05:32:09.390Z,99.90
2023-04-20T05:34:36.380Z,99.90
2023-04-20T05:37:05.654Z,99.90
2023-04-20T05:39:32.514Z,99.90
2023-04-20T05:41:59.367Z,99.90
2023-04-20T05:44:26.181Z,99.90
2023-04-20T05:46:52.999Z,99.90
2023-04-20T05:49:20.075Z,99.90
2023-04-20T05:51:47.067Z,99.90
2023-04-20T05:54:13.981Z,99.90
2023-04-20T05:56:41.098Z,99.90
2023-04-20T05:59:08.439Z,99.90
2023-04-20T06:01:35.639Z,99.90
2023-04-20T06:04:02.763Z,99.90
2023-04-20T06:06:29.745Z,99.90
2023-04-20T06:08:58.142Z,99.90
2023-04-20T06:11:25.136Z,99.90
2023-04-20T06:13:52.022Z,99.90
2023-04-20T06:16:19.005Z,99.90
2023-04-20T06:18:45.853Z,99.90
2023-04-20T06:21:14.336Z,99.90
2023-04-20T06:23:41.445Z,99.90
2023-04-20T06:26:09.807Z,99.90
2023-04-20T06:28:37.241Z,99.90
2023-04-20T06:31:04.924Z,99.90
2023-04-20T06:33:31.812Z,99.90
2023-04-20T06:35:59.182Z,99.90
2023-04-20T06:38:26.134Z,99.90
2023-04-20T06:40:52.997Z,99.90
2023-04-20T06:43:19.832Z,99.90
2023-04-20T06:45:46.974Z,99.90
2023-04-20T06:48:30.212Z,99.90
2023-04-20T06:50:58.653Z,99.90
2023-04-20T06:53:25.559Z,99.90
2023-04-20T06:55:55.573Z,99.90
2023-04-20T06:58:22.457Z,99.90
2023-04-20T07:00:49.276Z,99.90
2023-04-20T07:03:16.471Z,99.90
2023-04-20T07:05:43.537Z,99.90
2023-04-20T07:08:10.535Z,99.90
2023-04-20T07:10:37.373Z,99.90
2023-04-20T07:13:04.277Z,99.90
2023-04-20T07:15:31.315Z,99.90
2023-04-20T07:17:58.214Z,99.90
2023-04-20T07:20:25.099Z,99.90
2023-04-20T07:22:51.954Z,99.90
2023-04-20T07:25:18.883Z,99.90
2023-04-20T07:27:45.878Z,99.90
2023-04-20T07:30:13.114Z,99.90
2023-04-20T07:32:41.258Z,99.90
2023-04-20T07:35:08.737Z,99.90
2023-04-20T07:37:36.083Z,99.90
2023-04-20T07:40:06.723Z,99.90
2023-04-20T07:42:35.035Z,99.90
2023-04-20T07:45:01.928Z,99.90
2023-04-20T07:47:28.828Z,99.90
2023-04-20T07:49:57.587Z,99.90
2023-04-20T07:52:26.061Z,99.90
2023-04-20T07:54:59.823Z,99.90
2023-04-20T07:57:28.135Z,99.90
2023-04-20T07:59:55.090Z,99.90
2023-04-20T08:02:22.119Z,99.90
2023-04-20T08:04:50.178Z,99.90
2023-04-20T08:07:17.996Z,99.90
2023-04-20T08:09:44.939Z,99.90
2023-04-20T08:12:11.749Z,99.90
2023-04-20T08:14:38.606Z,99.90
2023-04-20T08:17:05.646Z,99.90
2023-04-20T08:19:32.866Z,99.90
2023-04-20T08:22:00.729Z,99.90
2023-04-20T08:24:29.331Z,99.90
2023-04-20T08:26:56.677Z,99.90
2023-04-20T08:29:23.495Z,99.90
2023-04-20T08:31:51.798Z,99.90
2023-04-20T08:34:19.209Z,99.90
2023-04-20T08:36:46.520Z,99.90
2023-04-20T08:39:18.584Z,99.90
2023-04-20T08:41:45.656Z,99.90
2023-04-20T08:44:12.717Z,99.90
2023-04-20T08:46:42.471Z,99.90
2023-04-20T08:49:12.830Z,99.90
2023-04-20T08:51:44.117Z,99.90
2023-04-20T08:54:12.208Z,99.90
2023-04-20T08:56:41.701Z,99.90
2023-04-20T08:59:14.072Z,99.90
2023-04-20T09:01:42.027Z,99.90
2023-04-20T09:04:35.292Z,99.90
2023-04-20T09:07:02.882Z,99.90
2023-04-20T09:09:29.873Z,99.90
2023-04-20T09:12:05.030Z,99.90
2023-04-20T09:14:46.153Z,99.90
2023-04-20T09:17:15.149Z,99.90
2023-04-20T09:19:45.251Z,99.90
2023-04-20T09:22:12.736Z,99.90
2023-04-20T09:24:41.414Z,99.90
2023-04-20T09:27:19.351Z,99.90
2023-04-20T09:29:57.980Z,99.90
2023-04-20T09:32:26.411Z,99.90
2023-04-20T09:34:53.360Z,99.90
2023-04-20T09:37:20.521Z,99.90
2023-04-20T09:39:47.424Z,99.90
2023-04-20T09:42:16.025Z,99.90
2023-04-20T09:44:43.630Z,99.90
2023-04-20T09:47:21.338Z,99.90
2023-04-20T09:49:48.425Z,99.90
2023-04-20T09:52:18.882Z,99.90
2023-04-20T09:54:46.245Z,99.90
2023-04-20T09:57:14.318Z,99.90
2023-04-20T09:59:46.289Z,99.90
2023-04-20T10:02:14.325Z,99.90
2023-04-20T10:05:01.936Z,99.90
2023-04-20T10:07:31.762Z,99.90
2023-04-20T10:10:13.515Z,99.90
2023-04-20T10:12:51.248Z,99.90
2023-04-20T10:15:19.504Z,99.90
2023-04-20T10:17:46.528Z,99.90
2023-04-20T10:20:21.462Z,99.90
2023-04-20T10:22:48.568Z,99.90
2023-04-20T10:25:19.448Z,99.90
2023-04-20T10:28:01.009Z,99.90
2023-04-20T10:30:29.407Z,99.90
2023-04-20T10:33:07.111Z,99.90
2023-04-20T10:35:56.174Z,99.90
2023-04-20T10:38:30.029Z,99.90
2023-04-20T10:40:57.111Z,99.90
2023-04-20T10:43:24.026Z,99.90
2023-04-20T10:45:51.051Z,99.90
2023-04-20T10:48:18.427Z,99.90
2023-04-20T10:50:46.073Z,99.90
2023-04-20T10:53:23.689Z,99.90
2023-04-20T10:56:00.858Z,99.90
2023-04-20T10:58:27.960Z,99.90
2023-04-20T11:01:02.910Z,99.90
2023-04-20T11:03:31.823Z,99.90
2023-04-20T11:06:03.789Z,99.90
2023-04-20T11:08:41.821Z,99.90
2023-04-20T11:11:38.417Z,99.90
2023-04-20T11:14:07.662Z,99.90
2023-04-20T11:16:48.570Z,99.90
2023-04-20T11:19:27.270Z,99.90
2023-04-20T11:21:54.339Z,99.90
2023-04-20T11:24:26.870Z,99.90
2023-04-20T11:26:55.095Z,99.90
2023-04-20T11:29:38.838Z,99.90
2023-04-20T11:32:10.764Z,99.90
2023-04-20T11:34:39.641Z,99.90
2023-04-20T11:37:08.198Z,99.90
2023-04-20T11:39:35.234Z,99.90
2023-04-20T11:42:02.374Z,99.90
2023-04-20T11:44:29.216Z,99.90
2023-04-20T11:46:59.724Z,99.90
2023-04-20T11:49:28.414Z,99.90
2023-04-20T11:51:55.608Z,99.90
2023-04-20T11:54:24.057Z,99.90
2023-04-20T11:56:51.312Z,99.90
2023-04-20T11:59:20.583Z,99.90
2023-04-20T12:01:48.318Z,99.90
2023-04-20T12:04:16.416Z,99.90
2023-04-20T12:06:44.060Z,99.90
2023-04-20T12:09:11.020Z,99.90
2023-04-20T12:11:37.869Z,99.90
2023-04-20T12:14:05.257Z,99.90
2023-04-20T12:16:32.491Z,99.90
2023-04-20T12:18:59.642Z,99.90
2023-04-20T12:21:27.425Z,99.90
2023-04-20T12:23:54.434Z,99.90
2023-04-20T12:26:22.627Z,99.90
2023-04-20T12:28:52.234Z,99.90
2023-04-20T12:31:19.252Z,99.90
2023-04-20T12:33:46.114Z,99.90
2023-04-20T12:36:13.020Z,99.90
2023-04-20T12:38:39.903Z,99.90
2023-04-20T12:41:06.869Z,99.90
2023-04-20T12:43:33.901Z,99.90
2023-04-20T12:46:00.703Z,99.90
2023-04-20T12:48:27.487Z,99.90
2023-04-20T12:50:54.413Z,99.90
2023-04-20T12:53:21.465Z,99.90
2023-04-20T12:55:50.970Z,99.90
2023-04-20T12:58:21.962Z,99.90
2023-04-20T13:00:48.902Z,99.90
2023-04-20T13:03:15.975Z,99.90
2023-04-20T13:05:44.472Z,99.90
2023-04-20T13:08:11.709Z,99.90
2023-04-20T13:10:42.959Z,99.90
2023-04-20T13:13:11.187Z,99.90
2023-04-20T13:15:39.394Z,99.90
2023-04-20T13:18:07.008Z,99.90
2023-04-20T13:20:33.943Z,99.90
2023-04-20T13:23:01.550Z,99.90
2023-04-20T13:25:30.077Z,99.90
2023-04-20T13:27:57.627Z,99.90
2023-04-20T13:30:25.028Z,99.90
2023-04-20T13:32:52.223Z,99.90
2023-04-20T13:35:19.357Z,99.90
2023-04-20T13:37:46.275Z,99.90
2023-04-20T13:40:13.829Z,99.90
2023-04-20T13:42:40.750Z,99.90
2023-04-20T13:45:08.782Z,99.90
2023-04-20T13:47:35.635Z,99.90
2023-04-20T13:50:03.647Z,99.90
2023-04-20T13:52:30.795Z,99.90
2023-04-20T13:54:57.568Z,99.90
2023-04-20T13:57:24.487Z,99.90
2023-04-20T13:59:51.392Z,99.90
2023-04-20T14:02:18.251Z,99.90
2023-04-20T14:04:45.254Z,99.90
2023-04-20T14:07:12.257Z,99.90
2023-04-20T14:09:39.043Z,99.90
2023-04-20T14:12:05.976Z,99.90
2023-04-20T14:14:34.281Z,99.90
2023-04-20T14:17:02.014Z,99.90
2023-04-20T14:19:28.907Z,99.90
2023-04-20T14:21:55.847Z,99.90
2023-04-20T14:24:22.683Z,99.90
2023-04-20T14:26:51.311Z,99.90
2023-04-20T14:29:18.241Z,99.90
2023-04-20T14:31:45.064Z,99.90
2023-04-20T14:34:13.243Z,99.90
2023-04-20T14:36:40.333Z,99.90
2023-04-20T14:39:07.264Z,99.90
2023-04-20T14:41:34.896Z,99.90
2023-04-20T14:44:02.088Z,99.90
2023-04-20T14:46:29.087Z,99.90
2023-04-20T14:48:56.092Z,99.90
2023-04-20T14:51:22.909Z,99.90
2023-04-20T14:53:49.999Z,99.90
2023-04-20T14:56:16.805Z,99.90
2023-04-20T14:58:43.726Z,99.90
2023-04-20T15:01:11.339Z,99.90
2023-04-20T15:03:38.392Z,99.90
2023-04-20T15:06:06.065Z,99.90
2023-04-20T15:08:33.775Z,99.90
2023-04-20T15:11:02.004Z,99.90
2023-04-20T15:13:28.882Z,99.90
2023-04-20T15:15:55.867Z,99.90
2023-04-20T15:18:22.902Z,99.90
2023-04-20T15:20:52.098Z,99.90
2023-04-20T15:23:19.272Z,99.90
2023-04-20T15:25:46.268Z,99.90
2023-04-20T15:28:13.176Z,99.90
2023-04-20T15:30:40.182Z,99.90
2023-04-20T15:33:07.386Z,99.90
2023-04-20T15:35:35.342Z,99.90
2023-04-20T15:38:03.484Z,99.90
2023-04-20T15:40:30.467Z,99.90
2023-04-20T15:42:57.508Z,99.90
2023-04-20T15:45:24.790Z,99.90
2023-04-20T15:47:51.825Z,99.90
2023-04-20T15:50:19.319Z,99.90
2023-04-20T15:52:49.653Z,99.90
2023-04-20T15:55:17.116Z,99.90
2023-04-20T15:57:48.369Z,99.90
2023-04-20T16:00:15.707Z,99.90
2023-04-20T16:02:42.942Z,99.90
2023-04-20T16:05:10.004Z,99.90
2023-04-20T16:07:36.916Z,99.90
2023-04-20T16:10:07.023Z,99.90
2023-04-20T16:12:33.867Z,99.90
2023-04-20T16:15:02.054Z,99.90
2023-04-20T16:17:29.121Z,99.90
2023-04-20T16:19:56.100Z,99.90
2023-04-20T16:22:22.978Z,99.90
2023-04-20T16:24:49.881Z,99.90
2023-04-20T16:27:17.165Z,99.90
2023-04-20T16:29:44.865Z,99.90
2023-04-20T16:32:12.079Z,99.90
2023-04-20T16:34:38.906Z,99.90
2023-04-20T16:37:05.738Z,99.90
2023-04-20T16:39:32.755Z,99.90
2023-04-20T16:41:59.629Z,99.90
2023-04-20T16:44:26.498Z,99.90
2023-04-20T16:46:53.378Z,99.90
2023-04-20T16:49:20.422Z,99.90
2023-04-20T16:51:47.931Z,99.90
2023-04-20T16:54:14.840Z,99.90
2023-04-20T16:56:41.800Z,99.90
2023-04-20T16:59:08.670Z,99.90
2023-04-20T17:01:35.821Z,99.90
2023-04-20T17:04:02.806Z,99.90
2023-04-20T17:06:29.778Z,99.90
2023-04-20T17:09:01.408Z,99.90
2023-04-20T17:11:28.740Z,99.90
2023-04-20T17:13:55.664Z,99.90
2023-04-20T17:16:22.513Z,99.90
2023-04-20T17:18:49.458Z,99.90
2023-04-20T17:21:16.279Z,99.90
2023-04-20T17:23:43.164Z,99.90
2023-04-20T17:26:10.120Z,99.90
2023-04-20T17:28:37.065Z,99.90
2023-04-20T17:31:04.075Z,99.90
2023-04-20T17:33:30.960Z,99.90
2023-04-20T17:35:58.215Z,99.90
2023-04-20T17:38:25.123Z,99.90
2023-04-20T17:40:52.010Z,99.90
2023-04-20T17:43:19.054Z,99.90
2023-04-20T17:45:49.362Z,99.90
2023-04-20T17:48:16.464Z,99.90
2023-04-20T17:50:43.411Z,99.90
2023-04-20T17:53:10.191Z,99.90
2023-04-20T17:55:37.143Z,99.90
2023-04-20T17:58:04.005Z,99.90
2023-04-20T18:00:30.915Z,99.90
2023-04-20T18:03:00.518Z,99.90
2023-04-20T18:05:27.573Z,99.90
2023-04-20T18:07:54.447Z,99.90
2023-04-20T18:10:21.372Z,99.90
2023-04-20T18:12:48.240Z,99.90
2023-04-20T18:15:15.297Z,99.90
2023-04-20T18:17:42.676Z,99.90
2023-04-20T18:20:11.347Z,99.90
2023-04-20T18:22:38.717Z,99.90
2023-04-20T18:25:05.946Z,99.90
2023-04-20T18:27:32.762Z,99.90
2023-04-20T18:30:02.445Z,99.90
2023-04-20T18:32:30.950Z,99.90
2023-04-20T18:35:00.375Z,99.90
2023-04-20T18:37:27.365Z,99.90
2023-04-20T18:39:54.267Z,99.90
2023-04-20T18:42:21.288Z,99.90
2023-04-20T18:44:51.030Z,99.90
2023-04-20T18:47:18.988Z,99.90
2023-04-20T18:49:45.812Z,99.90
2023-04-20T18:52:13.713Z,99.90
2023-04-20T18:54:40.796Z,99.90
2023-04-20T18:57:08.046Z,99.90
2023-04-20T18:59:34.899Z,99.90
2023-04-20T19:02:01.820Z,99.90
2023-04-20T19:04:29.695Z,99.90
2023-04-20T19:06:56.561Z,99.90
2023-04-20T19:09:23.462Z,99.90
2023-04-20T19:11:51.093Z,99.90
2023-04-20T19:14:18.297Z,99.90
2023-04-20T19:16:45.374Z,99.90
2023-04-20T19:19:12.369Z,99.90
2023-04-20T19:21:39.203Z,99.90
2023-04-20T19:24:06.485Z,99.90
2023-04-20T19:26:33.665Z,99.90
2023-04-20T19:29:00.676Z,99.90
2023-04-20T19:31:32.172Z,99.90
2023-04-20T19:33:59.185Z,99.90
2023-04-20T19:36:26.016Z,99.90
2023-04-20T19:38:52.859Z,99.90
2023-04-20T19:41:19.865Z,99.90
2023-04-20T19:43:46.934Z,99.90
2023-04-20T19:46:16.884Z,99.90
2023-04-20T19:48:44.361Z,99.90
2023-04-20T19:51:11.853Z,99.90
2023-04-20T19:53:38.760Z,99.90
2023-04-20T19:56:06.607Z,99.90
2023-04-20T19:58:33.615Z,99.90
2023-04-20T20:01:00.541Z,99.90
2023-04-20T20:03:27.680Z,99.90
2023-04-20T20:05:54.664Z,99.90
2023-04-20T20:08:21.559Z,99.90
2023-04-20T20:10:48.412Z,99.90
2023-04-20T20:13:15.573Z,99.90
2023-04-20T20:15:42.724Z,99.90
2023-04-20T20:18:12.194Z,99.90
2023-04-20T20:20:39.383Z,99.90
2023-04-20T20:23:06.341Z,99.90
2023-04-20T20:25:35.156Z,99.90
2023-04-20T20:28:02.306Z,99.90
2023-04-20T20:30:29.229Z,99.90
2023-04-20T20:32:58.906Z,99.90
2023-04-20T20:35:31.546Z,99.90
2023-04-20T20:37:59.525Z,99.90
2023-04-20T20:40:26.569Z,99.90
2023-04-20T20:42:54.399Z,99.90
2023-04-20T20:45:22.043Z,99.90
2023-04-20T20:47:49.001Z,99.90
2023-04-20T20:50:16.532Z,99.90
2023-04-20T20:52:43.458Z,99.90
2023-04-20T20:55:11.099Z,99.90
2023-04-20T20:57:38.426Z,99.90
2023-04-20T21:00:11.306Z,99.90
2023-04-20T21:02:38.587Z,99.90
2023-04-20T21:05:06.378Z,99.90
2023-04-20T21:07:33.404Z,99.90
2023-04-20T21:10:00.274Z,99.90
2023-04-20T21:12:27.081Z,99.90
2023-04-20T21:14:54.272Z,99.90
2023-04-20T21:17:21.095Z,99.90
2023-04-20T21:19:48.009Z,99.90
2023-04-20T21:22:14.991Z,99.90
2023-04-20T21:24:42.143Z,99.90
2023-04-20T21:27:09.030Z,99.90
2023-04-20T21:29:35.795Z,99.90
2023-04-20T21:32:02.883Z,99.90
2023-04-20T21:34:29.685Z,99.90
2023-04-20T21:37:03.595Z,99.90
2023-04-20T21:39:31.564Z,99.90
2023-04-20T21:41:59.467Z,99.90
2023-04-20T21:44:27.005Z,99.90
2023-04-20T21:46:53.892Z,99.90
2023-04-20T21:49:21.187Z,99.90
2023-04-20T21:51:48.103Z,99.90
2023-04-20T21:54:15.305Z,99.90
2023-04-20T21:56:42.382Z,99.90
2023-04-20T21:59:09.238Z,99.90
2023-04-20T22:01:36.125Z,99.90
2023-04-20T22:04:04.070Z,99.90
2023-04-20T22:06:32.722Z,99.90
2023-04-20T22:08:59.825Z,99.90
2023-04-20T22:11:26.789Z,99.90
2023-04-20T22:13:53.709Z,99.90
2023-04-20T22:16:21.904Z,99.90
2023-04-20T22:18:49.225Z,99.90
2023-04-20T22:21:16.368Z,99.90
2023-04-20T22:23:43.185Z,99.90
2023-04-20T22:26:10.180Z,99.90
2023-04-20T22:28:37.090Z,99.90
2023-04-20T22:31:04.080Z,99.90
2023-04-20T22:33:31.007Z,99.90
2023-04-20T22:35:57.895Z,99.90
2023-04-20T22:38:24.987Z,99.90
2023-04-20T22:40:51.806Z,99.90
2023-04-20T22:43:18.836Z,99.90
2023-04-20T22:45:45.700Z,99.90
2023-04-20T22:48:12.639Z,99.90
2023-04-20T22:50:39.476Z,99.90
2023-04-20T22:53:06.303Z,99.90
2023-04-20T22:55:33.191Z,99.90
2023-04-20T22:58:00.036Z,99.90
2023-04-20T23:00:27.121Z,99.90
2023-04-20T23:02:54.199Z,99.90
2023-04-20T23:05:21.057Z,99.90
2023-04-20T23:07:48.338Z,99.90
2023-04-20T23:10:16.397Z,99.90
2023-04-20T23:12:47.098Z,99.90
2023-04-20T23:15:13.996Z,99.90
2023-04-20T23:17:41.026Z,99.90
2023-04-20T23:20:13.767Z,99.90
2023-04-20T23:22:41.039Z,99.90
2023-04-20T23:25:09.793Z,99.90
2023-04-20T23:27:37.067Z,99.90
2023-04-20T23:30:04.293Z,99.90
2023-04-20T23:32:31.457Z,99.90
2023-04-20T23:34:58.431Z,99.90
2023-04-20T23:37:25.328Z,99.90
2023-04-20T23:39:52.140Z,99.90
2023-04-20T23:42:18.990Z,99.90
2023-04-20T23:44:45.759Z,99.90
2023-04-20T23:47:12.597Z,99.90
2023-04-20T23:49:39.418Z,99.90
2023-04-20T23:52:06.690Z,99.90
2023-04-20T23:54:33.592Z,99.90
2023-04-20T23:57:00.549Z,99.90
2023-04-20T23:59:27.371Z,99.90
